createdAt,value
2023-04-28T00:02:27.358Z,98645.84
2023-04-28T00:05:30.818Z,98657.72
2023-04-28T00:08:35.062Z,98658.38
2023-04-28T00:11:37.925Z,98655.97
2023-04-28T00:14:40.749Z,98656.06
2023-04-28T00:17:43.702Z,98660.06
2023-04-28T00:20:46.635Z,98650.34
2023-04-28T00:23:50.752Z,98670.94
2023-04-28T00:26:53.686Z,98663.19
2023-04-28T00:29:56.648Z,98662.34
2023-04-28T00:32:59.412Z,98678.81
2023-04-28T00:36:02.447Z,98677.59
2023-04-28T00:39:07.862Z,98670.09
2023-04-28T00:42:10.724Z,98674.63
2023-04-28T00:45:13.497Z,98676.78
2023-04-28T00:48:16.309Z,98673.44
2023-04-28T00:51:19.198Z,98676.13
2023-04-28T00:54:23.418Z,98682.03
2023-04-28T00:57:26.412Z,98683.69
2023-04-28T01:00:29.235Z,98691.28
2023-04-28T01:03:32.206Z,98682.75
2023-04-28T01:06:35.542Z,98680.81
2023-04-28T01:09:39.754Z,98674.44
2023-04-28T01:12:42.501Z,98689.13
2023-04-28T01:15:45.265Z,98688.41
2023-04-28T01:18:48.803Z,98691.09
2023-04-28T01:21:51.791Z,98687.28
2023-04-28T01:24:56.373Z,98697.44
2023-04-28T01:27:59.147Z,98704.38
2023-04-28T01:31:02.171Z,98688.66
2023-04-28T01:34:05.141Z,98701.22
2023-04-28T01:37:07.938Z,98692.94
2023-04-28T01:40:12.990Z,98699.31
2023-04-28T01:43:15.785Z,98695.22
2023-04-28T01:46:18.755Z,98683.78
2023-04-28T01:49:21.583Z,98691.19
2023-04-28T01:52:24.504Z,98680.47
2023-04-28T01:55:28.614Z,98694.88
2023-04-28T01:58:31.893Z,98685.63
2023-04-28T02:01:34.704Z,98687.47
2023-04-28T02:04:39.027Z,98691.63
2023-04-28T02:07:41.777Z,98709.44
2023-04-28T02:10:46.384Z,98710.28
2023-04-28T02:13:49.221Z,98702.53
2023-04-28T02:16:51.953Z,98710.47
2023-04-28T02:19:56.441Z,98721.00
2023-04-28T02:22:59.198Z,98722.66
2023-04-28T02:26:03.927Z,98719.41
2023-04-28T02:29:06.717Z,98722.00
2023-04-28T02:32:09.529Z,98730.69
2023-04-28T02:35:12.458Z,98735.09
2023-04-28T02:38:15.240Z,98729.34
2023-04-28T02:41:19.362Z,98729.69
2023-04-28T02:44:22.719Z,98741.47
2023-04-28T02:47:25.502Z,98748.78
2023-04-28T02:50:28.315Z,98749.44
2023-04-28T02:53:31.077Z,98750.44
2023-04-28T02:56:35.583Z,98767.34
2023-04-28T02:59:38.377Z,98767.34
2023-04-28T03:02:41.566Z,98760.81
2023-04-28T03:05:44.578Z,98763.31
2023-04-28T03:08:47.329Z,98768.19
2023-04-28T03:11:51.491Z,98764.03
2023-04-28T03:14:54.254Z,98769.03
2023-04-28T03:17:57.109Z,98774.03
2023-04-28T03:20:59.932Z,98781.03
2023-04-28T03:24:05.293Z,98788.25
2023-04-28T03:27:09.755Z,98773.66
2023-04-28T03:30:12.881Z,98775.88
2023-04-28T03:33:15.698Z,98785.38
2023-04-28T03:36:18.466Z,98795.44
2023-04-28T03:39:21.264Z,98795.44
2023-04-28T03:42:25.686Z,98791.28
2023-04-28T03:45:28.440Z,98792.47
2023-04-28T03:48:31.468Z,98787.94
2023-04-28T03:51:34.478Z,98797.81
2023-04-28T03:54:37.231Z,98794.97
2023-04-28T03:57:41.723Z,98795.97
2023-04-28T04:00:44.465Z,98794.13
2023-04-28T04:03:47.431Z,98798.66
2023-04-28T04:06:50.484Z,98811.41
2023-04-28T04:09:53.184Z,98812.13
2023-04-28T04:12:57.294Z,98813.91
2023-04-28T04:16:00.258Z,98818.53
2023-04-28T04:19:03.112Z,98819.38
2023-04-28T04:22:05.869Z,98817.69
2023-04-28T04:25:08.911Z,98813.38
2023-04-28T04:28:13.074Z,98815.22
2023-04-28T04:31:15.884Z,98836.13
2023-04-28T04:34:19.722Z,98842.63
2023-04-28T04:37:22.648Z,98835.81
2023-04-28T04:40:25.406Z,98837.47
2023-04-28T04:43:29.546Z,98839.13
2023-04-28T04:46:32.783Z,98843.13
2023-04-28T04:49:35.588Z,98851.88
2023-04-28T04:52:38.503Z,98850.50
2023-04-28T04:55:41.281Z,98856.41
2023-04-28T04:58:45.616Z,98853.66
2023-04-28T05:01:48.433Z,98856.34
2023-04-28T05:04:51.347Z,98854.50
2023-04-28T05:07:54.173Z,98855.84
2023-04-28T05:10:57.831Z,98861.28
2023-04-28T05:14:02.022Z,98859.72
2023-04-28T05:17:04.788Z,98865.91
2023-04-28T05:20:08.167Z,98859.19
2023-04-28T05:23:10.941Z,98859.34
2023-04-28T05:26:13.796Z,98855.31
2023-04-28T05:29:17.936Z,98854.19
2023-04-28T05:32:21.604Z,98846.16
2023-04-28T05:35:24.489Z,98841.75
2023-04-28T05:38:27.397Z,98844.22
2023-04-28T05:41:30.156Z,98841.03
2023-04-28T05:44:34.330Z,98834.00
2023-04-28T05:47:37.287Z,98840.38
2023-04-28T05:50:40.061Z,98847.03
2023-04-28T05:53:42.988Z,98844.53
2023-04-28T05:56:45.893Z,98841.66
2023-04-28T05:59:50.100Z,98848.53
2023-04-28T06:02:52.955Z,98862.44
2023-04-28T06:05:55.859Z,98860.91
2023-04-28T06:08:58.603Z,98863.78
2023-04-28T06:12:01.355Z,98869.47
2023-04-28T06:15:06.659Z,98873.66
2023-04-28T06:18:09.863Z,98886.88
2023-04-28T06:21:12.961Z,98883.53
2023-04-28T06:24:16.060Z,98880.50
2023-04-28T06:27:19.065Z,98883.53
2023-04-28T06:30:24.290Z,98881.56
2023-04-28T06:33:27.037Z,98881.28
2023-04-28T06:36:29.859Z,98892.63
2023-04-28T06:39:32.597Z,98895.88
2023-04-28T06:42:35.527Z,98896.84
2023-04-28T06:45:39.924Z,98896.53
2023-04-28T06:48:42.747Z,98893.19
2023-04-28T06:51:45.514Z,98894.97
2023-04-28T06:54:48.311Z,98885.91
2023-04-28T06:57:51.148Z,98869.78
2023-04-28T07:00:55.510Z,98862.09
2023-04-28T07:03:58.376Z,98871.63
2023-04-28T07:07:01.456Z,98866.78
2023-04-28T07:10:04.439Z,98868.28
2023-04-28T07:13:07.173Z,98866.34
2023-04-28T07:16:11.929Z,98874.00
2023-04-28T07:19:14.709Z,98880.88
2023-04-28T07:22:17.609Z,98866.44
2023-04-28T07:25:20.303Z,98878.53
2023-04-28T07:28:23.083Z,98873.16
2023-04-28T07:31:27.368Z,98857.28
2023-04-28T07:34:30.060Z,98852.22
2023-04-28T07:37:33.200Z,98845.66
2023-04-28T07:40:36.052Z,98854.72
2023-04-28T07:43:38.873Z,98860.25
2023-04-28T07:46:42.992Z,98857.09
2023-04-28T07:49:45.869Z,98859.25
2023-04-28T07:52:48.610Z,98858.56
2023-04-28T07:55:51.472Z,98853.59
2023-04-28T07:58:54.203Z,98860.16
2023-04-28T08:01:58.424Z,98857.81
2023-04-28T08:05:01.498Z,98883.44
2023-04-28T08:08:04.488Z,98899.66
2023-04-28T08:11:07.887Z,98932.47
2023-04-28T08:14:10.681Z,98955.91
2023-04-28T08:17:14.859Z,98961.13
2023-04-28T08:20:21.640Z,98955.91
2023-04-28T08:23:28.378Z,98954.94
2023-04-28T08:26:31.406Z,98951.03
2023-04-28T08:29:34.329Z,98947.53
2023-04-28T08:32:38.783Z,98945.69
2023-04-28T08:35:41.544Z,98954.25
2023-04-28T08:38:44.484Z,98944.03
2023-04-28T08:41:47.232Z,98925.47
2023-04-28T08:44:50.971Z,98925.47
2023-04-28T08:47:56.219Z,98930.81
2023-04-28T08:50:59.218Z,98927.75
2023-04-28T08:54:24.825Z,98930.25
2023-04-28T08:57:28.009Z,98943.66
2023-04-28T09:00:30.805Z,98960.09
2023-04-28T09:03:35.177Z,98955.56
2023-04-28T09:06:39.646Z,98950.22
2023-04-28T09:09:42.446Z,98938.47
2023-04-28T09:12:45.255Z,98930.13
2023-04-28T09:15:48.650Z,98936.34
2023-04-28T09:18:58.484Z,98927.47
2023-04-28T09:22:07.686Z,98938.00
2023-04-28T09:25:17.373Z,98946.22
2023-04-28T09:28:23.483Z,98954.63
2023-04-28T09:31:28.057Z,98945.56
2023-04-28T09:34:45.429Z,98954.25
2023-04-28T09:37:48.129Z,98956.75
2023-04-28T09:40:54.691Z,98948.28
2023-04-28T09:44:10.776Z,98939.25
2023-04-28T09:47:22.297Z,98936.09
2023-04-28T09:50:26.457Z,98935.44
2023-04-28T09:53:29.717Z,98932.28
2023-04-28T09:56:33.000Z,98936.06
2023-04-28T09:59:36.309Z,98946.03
2023-04-28T10:05:46.778Z,98934.66
2023-04-28T10:08:52.247Z,98936.22
2023-04-28T10:11:55.013Z,98950.81
2023-04-28T10:14:57.914Z,98953.97
2023-04-28T10:18:01.404Z,98964.69
2023-04-28T10:21:07.660Z,98961.00
2023-04-28T10:24:12.501Z,98948.63
2023-04-28T10:27:15.963Z,98954.97
2023-04-28T10:30:27.439Z,98945.75
2023-04-28T10:33:31.404Z,98942.25
2023-04-28T10:36:52.972Z,98936.25
2023-04-28T10:40:14.553Z,98936.38
2023-04-28T10:43:34.691Z,98933.53
2023-04-28T10:47:01.064Z,98936.56
2023-04-28T10:50:08.205Z,98931.88
2023-04-28T10:53:12.745Z,98940.56
2023-04-28T10:56:16.988Z,98931.22
2023-04-28T10:59:26.715Z,98941.09
2023-04-28T11:02:50.387Z,98926.31
2023-04-28T11:06:11.122Z,98939.56
2023-04-28T11:09:28.783Z,98937.03
2023-04-28T11:12:32.960Z,98941.56
2023-04-28T11:15:36.047Z,98943.59
2023-04-28T11:18:49.562Z,98941.44
2023-04-28T11:21:56.161Z,98929.38
2023-04-28T11:24:59.393Z,98916.50
2023-04-28T11:28:07.126Z,98913.31
2023-04-28T11:31:12.802Z,98904.63
2023-04-28T11:34:20.170Z,98896.41
2023-04-28T11:37:23.112Z,98890.56
2023-04-28T11:40:25.907Z,98878.00
2023-04-28T11:43:46.179Z,98864.22
2023-04-28T11:46:53.815Z,98858.91
2023-04-28T11:49:57.032Z,98847.00
2023-04-28T11:52:59.839Z,98854.41
2023-04-28T11:56:08.070Z,98846.03
2023-04-28T11:59:13.509Z,98845.47
2023-04-28T12:02:17.122Z,98845.28
2023-04-28T12:05:22.252Z,98846.28
2023-04-28T12:08:29.001Z,98847.59
2023-04-28T12:11:32.274Z,98840.16
2023-04-28T12:14:54.575Z,98837.91
2023-04-28T12:18:10.578Z,98837.81
2023-04-28T12:21:22.084Z,98831.50
2023-04-28T12:28:00.756Z,98835.31
2023-04-28T12:31:05.003Z,98851.75
2023-04-28T12:34:09.730Z,98852.72
2023-04-28T12:37:12.620Z,98877.50
2023-04-28T12:40:15.660Z,98890.06
2023-04-28T12:43:18.620Z,98889.75
2023-04-28T12:46:21.409Z,98886.56
2023-04-28T12:49:25.569Z,98876.47
2023-04-28T12:52:28.336Z,98863.75
2023-04-28T12:55:32.036Z,98852.72
2023-04-28T12:58:34.836Z,98856.28
2023-04-28T13:01:37.684Z,98848.38
2023-04-28T13:04:43.148Z,98842.50
2023-04-28T13:07:46.571Z,98831.97
2023-04-28T13:10:49.449Z,98825.38
2023-04-28T13:13:52.955Z,98815.53
2023-04-28T13:16:55.952Z,98814.06
2023-04-28T13:20:01.460Z,98825.19
2023-04-28T13:23:04.291Z,98820.66
2023-04-28T13:26:07.019Z,98819.22
2023-04-28T13:29:09.777Z,98817.88
2023-04-28T13:32:12.567Z,98809.19
2023-04-28T13:35:16.916Z,98805.50
2023-04-28T13:38:21.510Z,98811.53
2023-04-28T13:41:24.422Z,98816.34
2023-04-28T13:44:27.212Z,98837.53
2023-04-28T13:47:32.698Z,98841.06
2023-04-28T13:50:38.949Z,98852.88
2023-04-28T13:53:42.365Z,98857.31
2023-04-28T13:56:45.175Z,98850.78
2023-04-28T13:59:47.946Z,98843.59
2023-04-28T14:02:51.025Z,98836.47
2023-04-28T14:05:56.557Z,98835.81
2023-04-28T14:08:59.462Z,98831.97
2023-04-28T14:12:02.379Z,98846.88
2023-04-28T14:15:05.438Z,98840.88
2023-04-28T14:18:09.112Z,98848.53
2023-04-28T14:21:13.328Z,98852.91
2023-04-28T14:24:16.102Z,98834.88
2023-04-28T14:27:18.895Z,98833.22
2023-04-28T14:30:21.948Z,98826.50
2023-04-28T14:33:24.815Z,98827.81
2023-04-28T14:36:29.426Z,98822.28
2023-04-28T14:39:32.191Z,98810.88
2023-04-28T14:42:36.352Z,98810.53
2023-04-28T14:45:39.128Z,98812.88
2023-04-28T14:48:42.039Z,98814.34
2023-04-28T14:51:46.534Z,98812.31
2023-04-28T14:54:49.605Z,98814.03
2023-04-28T14:57:52.638Z,98807.66
2023-04-28T15:00:55.779Z,98819.69
2023-04-28T15:03:58.704Z,98823.19
2023-04-28T15:07:03.673Z,98828.50
2023-04-28T15:10:06.872Z,98834.88
2023-04-28T15:13:09.745Z,98837.03
2023-04-28T15:16:12.494Z,98838.41
2023-04-28T15:19:15.505Z,98836.72
2023-04-28T15:22:19.765Z,98839.06
2023-04-28T15:25:22.614Z,98842.88
2023-04-28T15:28:25.354Z,98843.84
2023-04-28T15:31:28.381Z,98830.66
2023-04-28T15:34:31.253Z,98827.88
2023-04-28T15:37:43.195Z,98824.06
2023-04-28T15:40:47.224Z,98823.97
2023-04-28T15:43:50.790Z,98826.50
2023-04-28T15:46:53.708Z,98830.38
2023-04-28T15:49:56.614Z,98829.19
2023-04-28T15:53:00.896Z,98830.53
2023-04-28T15:56:04.175Z,98826.03
2023-04-28T15:59:06.960Z,98826.69
2023-04-28T16:02:09.787Z,98826.19
2023-04-28T16:05:12.743Z,98834.50
2023-04-28T16:08:16.940Z,98834.22
2023-04-28T16:11:20.534Z,98835.34
2023-04-28T16:14:23.380Z,98836.81
2023-04-28T16:17:26.186Z,98837.19
2023-04-28T16:20:29.924Z,98843.34
2023-04-28T16:23:34.601Z,98844.47
2023-04-28T16:26:37.454Z,98844.34
2023-04-28T16:29:40.579Z,98852.00
2023-04-28T16:32:43.446Z,98838.72
2023-04-28T16:35:46.776Z,98860.84
2023-04-28T16:38:50.945Z,98852.28
2023-04-28T16:41:53.768Z,98859.66
2023-04-28T16:44:56.696Z,98851.66
2023-04-28T16:47:59.446Z,98856.81
2023-04-28T16:51:02.290Z,98860.84
2023-04-28T16:54:06.767Z,98859.97
2023-04-28T16:57:09.562Z,98862.25
2023-04-28T17:00:12.977Z,98865.97
2023-04-28T17:03:15.879Z,98860.56
2023-04-28T17:06:18.736Z,98855.69
2023-04-28T17:09:23.269Z,98850.22
2023-04-28T17:12:26.049Z,98848.06
2023-04-28T17:15:28.841Z,98854.06
2023-04-28T17:18:31.633Z,98857.56
2023-04-28T17:21:34.456Z,98847.72
2023-04-28T17:24:38.536Z,98860.16
2023-04-28T17:27:41.376Z,98858.63
2023-04-28T17:30:47.463Z,98864.44
2023-04-28T17:33:51.376Z,98865.81
2023-04-28T17:36:54.175Z,98874.25
2023-04-28T17:39:58.510Z,98869.59
2023-04-28T17:43:01.642Z,98876.28
2023-04-28T17:46:04.663Z,98873.28
2023-04-28T17:49:07.464Z,98866.63
2023-04-28T17:52:10.339Z,98871.63
2023-04-28T17:55:14.612Z,98878.97
2023-04-28T17:58:17.367Z,98873.94
2023-04-28T18:01:20.161Z,98865.09
2023-04-28T18:04:23.099Z,98877.94
2023-04-28T18:07:26.001Z,98882.94
2023-04-28T18:10:30.608Z,98877.63
2023-04-28T18:13:33.627Z,98883.94
2023-04-28T18:16:36.497Z,98886.31
2023-04-28T18:19:39.333Z,98874.78
2023-04-28T18:22:42.130Z,98882.63
2023-04-28T18:25:46.212Z,98882.28
2023-04-28T18:28:49.177Z,98878.97
2023-04-28T18:31:52.120Z,98883.94
2023-04-28T18:34:54.899Z,98889.97
2023-04-28T18:37:57.821Z,98885.63
2023-04-28T18:41:03.063Z,98885.97
2023-04-28T18:44:05.981Z,98890.97
2023-04-28T18:47:09.204Z,98888.81
2023-04-28T18:50:12.120Z,98885.31
2023-04-28T18:53:14.935Z,98881.47
2023-04-28T18:56:20.239Z,98878.78
2023-04-28T18:59:23.235Z,98884.78
2023-04-28T19:02:26.136Z,98879.78
2023-04-28T19:05:29.732Z,98870.28
2023-04-28T19:08:32.584Z,98871.59
2023-04-28T19:11:36.790Z,98868.25
2023-04-28T19:14:40.540Z,98857.56
2023-04-28T19:17:43.380Z,98851.41
2023-04-28T19:20:46.719Z,98858.59
2023-04-28T19:23:49.894Z,98862.09
2023-04-28T19:26:55.401Z,98865.59
2023-04-28T19:30:00.135Z,98869.94
2023-04-28T19:33:02.927Z,98859.25
2023-04-28T19:36:09.807Z,98864.09
2023-04-28T19:39:12.549Z,98864.25
2023-04-28T19:42:16.757Z,98855.75
2023-04-28T19:45:19.589Z,98866.28
2023-04-28T19:48:23.327Z,98861.25
2023-04-28T19:51:26.090Z,98852.88
2023-04-28T19:54:28.886Z,98852.22
2023-04-28T19:57:33.071Z,98859.59
2023-04-28T20:00:36.061Z,98852.41
2023-04-28T20:03:39.536Z,98867.59
2023-04-28T20:06:42.949Z,98865.09
2023-04-28T20:09:45.953Z,98863.94
2023-04-28T20:12:50.139Z,98860.09
2023-04-28T20:15:52.906Z,98859.25
2023-04-28T20:18:55.749Z,98866.63
2023-04-28T20:21:58.567Z,98861.41
2023-04-28T20:25:05.835Z,98855.94
2023-04-28T20:28:12.798Z,98855.91
2023-04-28T20:31:16.036Z,98855.59
2023-04-28T20:34:20.891Z,98860.59
2023-04-28T20:37:23.656Z,98862.75
2023-04-28T20:40:26.560Z,98870.44
2023-04-28T20:43:30.671Z,98862.59
2023-04-28T20:46:33.496Z,98864.78
2023-04-28T20:49:36.557Z,98870.59
2023-04-28T20:52:39.365Z,98868.94
2023-04-28T20:55:42.206Z,98871.81
2023-04-28T20:58:47.049Z,98865.94
2023-04-28T21:01:49.881Z,98868.13
2023-04-28T21:04:53.755Z,98866.44
2023-04-28T21:07:56.516Z,98867.47
2023-04-28T21:10:59.343Z,98870.44
2023-04-28T21:14:03.458Z,98881.13
2023-04-28T21:17:06.239Z,98876.13
2023-04-28T21:20:09.469Z,98871.78
2023-04-28T21:23:12.340Z,98873.78
2023-04-28T21:26:15.505Z,98861.75
2023-04-28T21:29:19.796Z,98866.28
2023-04-28T21:32:22.749Z,98861.44
2023-04-28T21:35:25.743Z,98856.72
2023-04-28T21:38:28.483Z,98863.91
2023-04-28T21:41:31.809Z,98864.47
2023-04-28T21:44:35.942Z,98856.06
2023-04-28T21:47:41.468Z,98860.91
2023-04-28T21:50:47.381Z,98860.59
2023-04-28T21:53:50.208Z,98862.59
2023-04-28T21:56:53.028Z,98864.91
2023-04-28T21:59:57.338Z,98866.56
2023-04-28T22:03:00.459Z,98874.63
2023-04-28T22:06:03.435Z,98867.13
2023-04-28T22:09:07.356Z,98861.25
2023-04-28T22:12:10.096Z,98869.13
2023-04-28T22:15:14.376Z,98864.44
2023-04-28T22:18:17.344Z,98859.25
2023-04-28T22:21:20.252Z,98865.78
2023-04-28T22:24:22.967Z,98858.09
2023-04-28T22:27:26.010Z,98854.09
2023-04-28T22:30:31.476Z,98855.06
2023-04-28T22:33:34.231Z,98857.25
2023-04-28T22:36:37.500Z,98861.59
2023-04-28T22:39:40.284Z,98851.25
2023-04-28T22:42:43.558Z,98852.09
2023-04-28T22:45:47.657Z,98855.25
2023-04-28T22:48:50.450Z,98853.22
2023-04-28T22:51:53.233Z,98854.41
2023-04-28T22:54:56.091Z,98855.25
2023-04-28T22:57:58.873Z,98844.91
2023-04-28T23:01:04.325Z,98845.75
2023-04-28T23:04:07.397Z,98851.75
2023-04-28T23:07:10.406Z,98848.56
2023-04-28T23:10:14.607Z,98842.00
2023-04-28T23:13:17.621Z,98855.25
2023-04-28T23:16:21.873Z,98854.94
2023-04-28T23:19:24.634Z,98859.09
2023-04-28T23:22:27.455Z,98856.09
2023-04-28T23:25:30.163Z,98861.94
2023-04-28T23:28:32.963Z,98855.91
2023-04-28T23:31:40.064Z,98855.91
2023-04-28T23:34:43.020Z,98854.59
2023-04-28T23:37:45.722Z,98849.41
2023-04-28T23:40:48.539Z,98853.59
2023-04-28T23:43:52.056Z,98852.41
2023-04-28T23:46:56.392Z,98855.44
2023-04-28T23:49:59.207Z,98856.91
2023-04-28T23:53:02.070Z,98858.56
2023-04-28T23:56:05.176Z,98863.94
2023-04-28T23:59:08.416Z,98852.41
